createdAt,value
2019-03-21T00:00:40.226Z,3.00
2019-03-21T00:04:46.859Z,3.10
2019-03-21T00:08:51.849Z,3.20
2019-03-21T00:12:57.221Z,3.20
2019-03-21T00:17:05.081Z,3.20
2019-03-21T00:21:11.289Z,3.30
2019-03-21T00:25:19.601Z,3.40
2019-03-21T00:29:24.598Z,3.40
2019-03-21T00:33:29.657Z,3.50
2019-03-21T00:37:34.641Z,3.50
2019-03-21T00:41:39.828Z,3.50
2019-03-21T00:45:44.807Z,3.60
2019-03-21T00:49:49.865Z,3.60
2019-03-21T00:53:54.858Z,3.60
2019-03-21T00:57:59.994Z,3.60
2019-03-21T01:02:04.990Z,3.70
2019-03-21T01:06:09.966Z,3.70
2019-03-21T01:10:21.124Z,3.70
2019-03-21T01:14:29.971Z,3.60
2019-03-21T01:18:33.993Z,3.50
2019-03-21T01:22:38.989Z,3.30
2019-03-21T01:26:43.981Z,3.10
2019-03-21T01:30:48.959Z,2.90
2019-03-21T01:34:53.975Z,2.80
2019-03-21T01:38:58.972Z,2.70
2019-03-21T01:43:04.065Z,2.60
2019-03-21T01:47:09.054Z,2.40
2019-03-21T01:51:14.024Z,2.30
2019-03-21T01:55:19.071Z,2.20
2019-03-21T01:59:24.078Z,2.10
2019-03-21T02:03:29.124Z,2.00
2019-03-21T02:07:34.122Z,1.90
2019-03-21T02:11:39.149Z,1.90
2019-03-21T02:15:44.159Z,1.80
2019-03-21T02:19:49.166Z,1.70
2019-03-21T02:23:54.184Z,1.60
2019-03-21T02:27:59.414Z,1.50
2019-03-21T02:32:04.462Z,1.40
2019-03-21T02:36:11.326Z,1.30
2019-03-21T02:40:22.427Z,1.30
2019-03-21T02:44:27.445Z,1.30
2019-03-21T02:48:32.444Z,1.40
2019-03-21T02:52:37.511Z,1.40
2019-03-21T02:56:42.578Z,1.40
2019-03-21T03:00:47.767Z,1.40
2019-03-21T03:04:52.840Z,1.40
2019-03-21T03:08:57.791Z,1.30
2019-03-21T03:13:02.788Z,1.20
2019-03-21T03:17:08.723Z,1.10
2019-03-21T03:21:13.725Z,1.10
2019-03-21T03:25:20.251Z,1.00
2019-03-21T03:29:25.245Z,1.00
2019-03-21T03:33:30.318Z,1.00
2019-03-21T03:37:35.362Z,1.00
2019-03-21T03:41:40.378Z,0.90
2019-03-21T03:45:45.661Z,0.90
2019-03-21T03:49:50.930Z,0.90
2019-03-21T03:53:55.911Z,0.90
2019-03-21T03:58:09.513Z,0.90
2019-03-21T04:02:14.480Z,0.90
2019-03-21T04:06:19.461Z,0.80
2019-03-21T04:10:30.278Z,0.70
2019-03-21T04:14:35.410Z,0.60
2019-03-21T04:18:40.410Z,0.40
2019-03-21T04:22:45.720Z,0.30
2019-03-21T04:26:50.715Z,0.20
2019-03-21T04:30:55.718Z,0.10
2019-03-21T04:35:00.709Z,0.10
2019-03-21T04:39:08.144Z,0.20
2019-03-21T04:43:13.168Z,0.30
2019-03-21T04:47:18.147Z,0.30
2019-03-21T04:51:23.414Z,0.40
2019-03-21T04:55:28.488Z,0.50
2019-03-21T04:59:33.496Z,0.60
2019-03-21T05:03:38.484Z,0.50
2019-03-21T05:07:43.446Z,0.50
2019-03-21T05:11:48.548Z,0.50
2019-03-21T05:15:54.614Z,0.40
2019-03-21T05:19:59.714Z,0.50
2019-03-21T05:24:04.782Z,0.50
2019-03-21T05:28:09.815Z,0.50
2019-03-21T05:32:14.795Z,0.50
2019-03-21T05:36:19.786Z,1.00
2019-03-21T05:40:24.855Z,1.80
2019-03-21T05:44:32.966Z,3.20
2019-03-21T05:48:37.931Z,4.80
2019-03-21T05:52:43.604Z,5.80
2019-03-21T05:56:48.574Z,6.20
2019-03-21T06:01:02.906Z,7.00
2019-03-21T06:05:08.175Z,8.30
2019-03-21T06:09:16.661Z,10.20
2019-03-21T06:13:23.764Z,12.20
2019-03-21T06:17:30.045Z,13.40
2019-03-21T06:21:50.256Z,14.10
2019-03-21T06:26:02.274Z,15.10
2019-03-21T06:30:08.891Z,16.30
2019-03-21T06:34:14.291Z,16.50
2019-03-21T06:38:19.581Z,17.60
2019-03-21T06:42:24.867Z,18.70
2019-03-21T06:46:30.154Z,19.60
2019-03-21T06:50:35.498Z,20.30
2019-03-21T06:54:40.774Z,21.00
2019-03-21T06:58:46.065Z,21.90
2019-03-21T07:02:51.569Z,22.80
2019-03-21T07:07:07.271Z,23.50
2019-03-21T07:11:03.786Z,24.70
2019-03-21T07:15:10.796Z,25.70
2019-03-21T07:19:16.053Z,26.30
2019-03-21T07:23:21.358Z,26.40
2019-03-21T07:27:26.663Z,26.50
2019-03-21T07:31:32.021Z,26.70
2019-03-21T07:35:38.847Z,27.10
2019-03-21T07:39:44.191Z,28.00
2019-03-21T07:43:49.454Z,27.90
2019-03-21T07:47:55.902Z,28.20
2019-03-21T07:52:01.202Z,28.50
2019-03-21T07:56:06.487Z,28.80
2019-03-21T08:00:14.851Z,29.70
2019-03-21T08:04:20.170Z,30.60
2019-03-21T08:08:25.462Z,31.20
2019-03-21T08:12:30.800Z,31.40
2019-03-21T08:16:36.101Z,31.60
2019-03-21T08:20:41.553Z,32.00
2019-03-21T08:24:46.805Z,32.00
2019-03-21T08:28:52.209Z,31.90
2019-03-21T08:32:57.570Z,31.90
2019-03-21T08:37:02.870Z,32.60
2019-03-21T08:41:08.226Z,32.90
2019-03-21T08:45:13.597Z,33.20
2019-03-21T08:49:18.866Z,33.10
2019-03-21T08:53:24.151Z,33.70
2019-03-21T08:57:29.458Z,33.60
2019-03-21T09:01:35.025Z,33.70
2019-03-21T09:05:40.408Z,33.90
2019-03-21T09:09:45.681Z,34.00
2019-03-21T09:13:51.046Z,32.60
2019-03-21T09:17:56.338Z,32.80
2019-03-21T09:22:01.609Z,33.70
2019-03-21T09:26:06.925Z,34.70
2019-03-21T09:30:14.417Z,34.60
2019-03-21T09:34:19.777Z,35.50
2019-03-21T09:38:25.055Z,36.10
2019-03-21T09:42:30.361Z,36.20
2019-03-21T09:46:36.709Z,36.00
2019-03-21T09:50:42.030Z,34.20
2019-03-21T09:54:47.318Z,33.70
2019-03-21T09:58:52.602Z,34.30
2019-03-21T10:02:57.874Z,35.50
2019-03-21T10:07:03.232Z,35.70
2019-03-21T10:11:08.419Z,36.10
2019-03-21T10:15:13.814Z,36.80
2019-03-21T10:19:19.113Z,37.50
2019-03-21T10:23:24.390Z,37.30
2019-03-21T10:27:29.666Z,37.50
2019-03-21T10:31:34.942Z,36.90
2019-03-21T10:35:40.380Z,36.00
2019-03-21T10:39:45.655Z,35.90
2019-03-21T10:43:50.952Z,36.40
2019-03-21T10:47:56.249Z,36.90
2019-03-21T10:52:01.510Z,37.00
2019-03-21T10:56:06.800Z,36.50
2019-03-21T11:00:12.551Z,36.60
2019-03-21T11:04:18.092Z,35.70
2019-03-21T11:08:23.426Z,35.30
2019-03-21T11:12:28.682Z,34.80
2019-03-21T11:16:34.006Z,35.20
2019-03-21T11:20:39.959Z,36.30
2019-03-21T11:24:45.228Z,36.60
2019-03-21T11:28:50.507Z,34.70
2019-03-21T11:32:55.758Z,34.50
2019-03-21T11:37:01.087Z,35.00
2019-03-21T11:41:06.396Z,33.90
2019-03-21T11:45:12.937Z,33.70
2019-03-21T11:49:18.250Z,34.00
2019-03-21T11:53:23.502Z,33.40
2019-03-21T11:57:28.799Z,32.60
2019-03-21T12:01:34.074Z,31.50
2019-03-21T12:05:39.358Z,30.90
2019-03-21T12:09:44.701Z,29.90
2019-03-21T12:13:49.962Z,29.60
2019-03-21T12:17:55.254Z,28.40
2019-03-21T12:22:00.578Z,27.00
2019-03-21T12:26:05.997Z,24.50
2019-03-21T12:30:14.186Z,22.40
2019-03-21T12:34:19.446Z,21.00
2019-03-21T12:38:24.765Z,19.80
2019-03-21T12:42:30.142Z,18.70
2019-03-21T12:46:35.422Z,18.00
2019-03-21T12:50:40.753Z,17.70
2019-03-21T12:54:46.006Z,17.60
2019-03-21T12:58:51.303Z,17.60
2019-03-21T13:02:56.571Z,17.40
2019-03-21T13:07:01.858Z,17.40
2019-03-21T13:11:07.202Z,17.30
2019-03-21T13:15:12.650Z,17.10
2019-03-21T13:19:17.930Z,17.00
2019-03-21T13:23:23.212Z,17.00
2019-03-21T13:27:28.498Z,17.00
2019-03-21T13:31:33.781Z,16.80
2019-03-21T13:35:39.037Z,16.80
2019-03-21T13:39:44.309Z,16.70
2019-03-21T13:43:49.580Z,16.70
2019-03-21T13:47:54.861Z,16.50
2019-03-21T13:52:00.137Z,16.40
2019-03-21T13:56:05.405Z,16.40
2019-03-21T14:00:16.653Z,16.50
2019-03-21T14:04:21.928Z,16.30
2019-03-21T14:08:27.223Z,16.30
2019-03-21T14:12:32.506Z,16.20
2019-03-21T14:16:37.749Z,16.20
2019-03-21T14:20:43.059Z,16.20
2019-03-21T14:24:48.337Z,16.20
2019-03-21T14:28:53.610Z,16.20
2019-03-21T14:32:59.083Z,16.20
2019-03-21T14:37:04.445Z,16.00
2019-03-21T14:41:09.802Z,15.90
2019-03-21T14:45:16.549Z,15.80
2019-03-21T14:49:21.794Z,15.70
2019-03-21T14:53:29.121Z,15.60
2019-03-21T14:57:36.325Z,15.60
2019-03-21T15:01:41.578Z,15.50
2019-03-21T15:05:46.857Z,15.40
2019-03-21T15:09:52.147Z,15.40
2019-03-21T15:13:57.425Z,15.30
2019-03-21T15:18:02.711Z,15.10
2019-03-21T15:22:08.026Z,15.10
2019-03-21T15:26:13.323Z,15.00
2019-03-21T15:30:19.708Z,15.00
2019-03-21T15:34:26.234Z,14.90
2019-03-21T15:38:31.696Z,14.80
2019-03-21T15:42:37.168Z,14.80
2019-03-21T15:46:42.424Z,14.70
2019-03-21T15:50:47.747Z,14.70
2019-03-21T15:54:53.073Z,14.70
2019-03-21T15:58:58.359Z,14.70
2019-03-21T16:03:05.342Z,14.60
2019-03-21T16:07:10.621Z,14.50
2019-03-21T16:11:15.895Z,14.40
2019-03-21T16:15:21.188Z,14.20
2019-03-21T16:19:26.476Z,14.00
2019-03-21T16:23:31.793Z,13.90
2019-03-21T16:27:37.641Z,13.70
2019-03-21T16:31:42.934Z,13.50
2019-03-21T16:35:48.210Z,13.40
2019-03-21T16:39:53.546Z,13.30
2019-03-21T16:43:58.822Z,13.20
2019-03-21T16:48:04.537Z,13.10
2019-03-21T16:52:10.793Z,13.00
2019-03-21T16:56:16.169Z,12.90
2019-03-21T17:00:21.777Z,12.70
2019-03-21T17:04:27.062Z,12.60
2019-03-21T17:08:32.334Z,12.40
2019-03-21T17:12:40.438Z,12.20
2019-03-21T17:16:44.552Z,12.10
2019-03-21T17:20:49.928Z,12.00
2019-03-21T17:24:55.201Z,11.80
2019-03-21T17:29:01.746Z,11.60
2019-03-21T17:33:07.415Z,11.50
2019-03-21T17:37:12.882Z,11.30
2019-03-21T17:41:18.186Z,11.10
2019-03-21T17:45:23.534Z,10.90
2019-03-21T17:49:28.939Z,10.80
2019-03-21T17:53:34.432Z,10.60
2019-03-21T17:57:40.878Z,10.40
2019-03-21T18:01:46.339Z,10.30
2019-03-21T18:05:51.602Z,10.20
2019-03-21T18:09:57.996Z,10.10
2019-03-21T18:14:04.188Z,10.10
2019-03-21T18:18:09.557Z,9.90
2019-03-21T18:22:14.833Z,9.60
2019-03-21T18:26:20.233Z,9.50
2019-03-21T18:30:25.579Z,9.50
2019-03-21T18:34:30.861Z,9.30
2019-03-21T18:38:36.221Z,9.30
2019-03-21T18:42:42.846Z,9.10
2019-03-21T18:46:48.354Z,8.90
2019-03-21T18:50:56.546Z,8.70
2019-03-21T18:55:06.667Z,8.60
2019-03-21T18:59:08.739Z,8.50
2019-03-21T19:03:14.030Z,8.40
2019-03-21T19:07:19.345Z,8.20
2019-03-21T19:11:24.633Z,8.10
2019-03-21T19:15:29.911Z,8.00
2019-03-21T19:19:35.203Z,8.00
2019-03-21T19:23:40.514Z,7.90
2019-03-21T19:27:45.770Z,7.80
2019-03-21T19:31:51.032Z,7.80
2019-03-21T19:35:56.029Z,7.70
2019-03-21T19:40:01.030Z,7.70
2019-03-21T19:44:06.402Z,7.60
2019-03-21T19:48:11.686Z,7.60
2019-03-21T19:52:17.247Z,7.50
2019-03-21T19:56:22.209Z,7.40
2019-03-21T20:00:27.227Z,7.30
2019-03-21T20:04:32.582Z,7.10
2019-03-21T20:08:37.582Z,7.10
2019-03-21T20:12:42.605Z,7.00
2019-03-21T20:16:47.674Z,6.90
2019-03-21T20:20:52.826Z,6.80
2019-03-21T20:24:57.822Z,6.80
2019-03-21T20:29:02.827Z,6.80
2019-03-21T20:33:07.957Z,6.80
2019-03-21T20:37:12.943Z,6.90
2019-03-21T20:41:18.226Z,6.80
2019-03-21T20:45:23.221Z,6.70
2019-03-21T20:49:28.289Z,6.60
2019-03-21T20:53:33.286Z,6.60
2019-03-21T20:57:38.282Z,6.60
2019-03-21T21:01:43.368Z,6.60
2019-03-21T21:05:49.442Z,6.40
2019-03-21T21:09:54.467Z,6.30
2019-03-21T21:13:59.437Z,6.20
2019-03-21T21:18:04.581Z,6.10
2019-03-21T21:22:09.573Z,6.00
2019-03-21T21:26:14.630Z,5.90
2019-03-21T21:30:22.799Z,5.80
2019-03-21T21:34:27.789Z,5.70
2019-03-21T21:38:32.783Z,5.60
2019-03-21T21:42:37.851Z,5.60
2019-03-21T21:46:42.862Z,5.50
2019-03-21T21:50:47.861Z,5.40
2019-03-21T21:54:52.863Z,5.40
2019-03-21T21:58:57.841Z,5.30
2019-03-21T22:03:02.850Z,5.30
2019-03-21T22:07:07.930Z,5.20
2019-03-21T22:11:12.930Z,5.20
2019-03-21T22:15:18.416Z,5.10
2019-03-21T22:19:23.403Z,5.10
2019-03-21T22:23:29.458Z,5.00
2019-03-21T22:27:34.477Z,5.00
2019-03-21T22:31:39.477Z,4.90
2019-03-21T22:35:44.496Z,4.90
2019-03-21T22:39:49.486Z,4.90
2019-03-21T22:43:54.494Z,4.80
2019-03-21T22:47:59.508Z,4.80
2019-03-21T22:52:04.509Z,4.80
2019-03-21T22:56:09.509Z,4.70
2019-03-21T23:00:29.175Z,4.60
2019-03-21T23:04:35.845Z,4.50
2019-03-21T23:08:41.939Z,4.50
2019-03-21T23:12:46.930Z,4.40
2019-03-21T23:16:51.998Z,4.40
2019-03-21T23:20:57.045Z,4.40
2019-03-21T23:25:02.065Z,4.30
2019-03-21T23:29:07.117Z,4.30
2019-03-21T23:33:12.187Z,4.20
2019-03-21T23:37:17.266Z,4.10
2019-03-21T23:41:23.309Z,4.10
2019-03-21T23:45:28.380Z,4.00
2019-03-21T23:49:33.397Z,3.90
2019-03-21T23:53:38.427Z,3.90
2019-03-21T23:57:43.437Z,3.90
